createdAt,value
2019-03-22T00:00:41.163Z,78.54
2019-03-22T00:03:13.230Z,78.37
2019-03-22T00:05:45.306Z,78.77
2019-03-22T00:08:17.431Z,78.67
2019-03-22T00:10:49.523Z,78.50
2019-03-22T00:13:21.676Z,78.20
2019-03-22T00:15:53.844Z,78.26
2019-03-22T00:18:26.004Z,78.95
2019-03-22T00:20:58.177Z,79.92
2019-03-22T00:23:30.306Z,80.11
2019-03-22T00:26:02.416Z,80.24
2019-03-22T00:28:34.560Z,80.20
2019-03-22T00:31:06.648Z,79.35
2019-03-22T00:33:38.828Z,79.33
2019-03-22T00:36:10.953Z,80.33
2019-03-22T00:38:43.057Z,80.59
2019-03-22T00:41:15.182Z,79.78
2019-03-22T00:43:47.296Z,79.76
2019-03-22T00:46:19.435Z,80.65
2019-03-22T00:48:51.497Z,80.91
2019-03-22T00:51:23.591Z,80.22
2019-03-22T00:53:55.695Z,80.10
2019-03-22T00:56:27.743Z,79.45
2019-03-22T00:58:59.831Z,79.80
2019-03-22T01:01:32.019Z,80.96
2019-03-22T01:04:04.159Z,81.58
2019-03-22T01:06:36.303Z,81.30
2019-03-22T01:09:08.984Z,81.75
2019-03-22T01:11:41.138Z,82.20
2019-03-22T01:14:13.282Z,82.19
2019-03-22T01:16:45.390Z,81.45
2019-03-22T01:19:17.540Z,81.43
2019-03-22T01:21:49.729Z,82.33
2019-03-22T01:24:21.782Z,82.46
2019-03-22T01:26:53.913Z,82.59
2019-03-22T01:29:26.032Z,82.44
2019-03-22T01:31:58.137Z,82.23
2019-03-22T01:34:30.258Z,81.34
2019-03-22T01:37:02.360Z,81.98
2019-03-22T01:39:34.477Z,82.50
2019-03-22T01:42:06.626Z,82.49
2019-03-22T01:44:38.763Z,82.81
2019-03-22T01:47:10.899Z,83.17
2019-03-22T01:49:43.016Z,82.96
2019-03-22T01:52:15.120Z,82.87
2019-03-22T01:54:47.124Z,83.21
2019-03-22T01:57:19.363Z,83.75
2019-03-22T01:59:51.477Z,83.69
2019-03-22T02:02:23.503Z,84.48
2019-03-22T02:04:55.667Z,85.69
2019-03-22T02:07:27.753Z,85.16
2019-03-22T02:09:59.905Z,85.54
2019-03-22T02:12:32.009Z,85.80
2019-03-22T02:15:05.692Z,84.96
2019-03-22T02:17:37.796Z,85.55
2019-03-22T02:20:10.837Z,86.08
2019-03-22T02:22:46.307Z,86.40
2019-03-22T02:25:18.628Z,86.18
2019-03-22T02:27:50.771Z,85.83
2019-03-22T02:30:22.846Z,86.58
2019-03-22T02:32:54.972Z,87.29
2019-03-22T02:35:29.321Z,86.83
2019-03-22T02:38:00.878Z,87.06
2019-03-22T02:40:32.975Z,86.95
2019-03-22T02:43:05.010Z,87.59
2019-03-22T02:45:37.100Z,88.52
2019-03-22T02:48:09.272Z,88.62
2019-03-22T02:50:41.409Z,88.47
2019-03-22T02:53:13.490Z,88.40
2019-03-22T02:55:45.647Z,88.45
2019-03-22T02:58:21.057Z,88.16
2019-03-22T03:00:51.597Z,87.55
2019-03-22T03:03:23.666Z,87.28
2019-03-22T03:05:55.730Z,86.95
2019-03-22T03:08:27.900Z,86.62
2019-03-22T03:10:59.972Z,86.65
2019-03-22T03:13:32.086Z,86.45
2019-03-22T03:16:04.217Z,86.41
2019-03-22T03:18:36.253Z,86.49
2019-03-22T03:21:08.400Z,86.79
2019-03-22T03:23:40.523Z,86.89
2019-03-22T03:26:12.684Z,86.48
2019-03-22T03:28:44.817Z,86.51
2019-03-22T03:31:16.925Z,86.23
2019-03-22T03:33:49.014Z,85.80
2019-03-22T03:36:21.053Z,85.78
2019-03-22T03:38:53.172Z,85.80
2019-03-22T03:41:25.315Z,85.52
2019-03-22T03:43:57.441Z,85.97
2019-03-22T03:46:29.557Z,86.31
2019-03-22T03:49:01.714Z,86.09
2019-03-22T03:51:33.774Z,86.24
2019-03-22T03:54:05.965Z,86.28
2019-03-22T03:56:38.011Z,86.22
2019-03-22T03:59:10.165Z,86.41
2019-03-22T04:01:42.261Z,86.17
2019-03-22T04:04:14.409Z,85.65
2019-03-22T04:06:46.546Z,85.80
2019-03-22T04:09:18.553Z,85.71
2019-03-22T04:11:50.664Z,85.17
2019-03-22T04:14:22.789Z,85.82
2019-03-22T04:16:54.885Z,85.82
2019-03-22T04:19:27.082Z,86.07
2019-03-22T04:21:59.189Z,86.64
2019-03-22T04:24:31.329Z,86.99
2019-03-22T04:27:03.398Z,87.37
2019-03-22T04:29:35.483Z,87.70
2019-03-22T04:32:07.573Z,87.43
2019-03-22T04:34:39.697Z,87.58
2019-03-22T04:37:11.809Z,87.60
2019-03-22T04:39:43.953Z,87.51
2019-03-22T04:42:16.109Z,87.19
2019-03-22T04:44:48.250Z,86.59
2019-03-22T04:47:22.625Z,87.13
2019-03-22T04:49:55.932Z,87.86
2019-03-22T04:52:29.062Z,88.20
2019-03-22T04:55:03.783Z,87.94
2019-03-22T04:57:37.178Z,87.37
2019-03-22T05:00:10.488Z,87.21
2019-03-22T05:02:45.221Z,87.52
2019-03-22T05:05:19.716Z,87.89
2019-03-22T05:07:53.917Z,87.61
2019-03-22T05:10:27.343Z,87.62
2019-03-22T05:13:02.337Z,86.99
2019-03-22T05:15:35.842Z,87.47
2019-03-22T05:18:08.447Z,87.35
2019-03-22T05:20:43.217Z,87.74
2019-03-22T05:23:17.447Z,87.66
2019-03-22T05:25:53.075Z,87.94
2019-03-22T05:28:26.225Z,87.89
2019-03-22T05:32:03.555Z,87.69
2019-03-22T05:34:35.652Z,87.78
2019-03-22T05:37:07.936Z,87.54
2019-03-22T05:39:40.036Z,87.43
2019-03-22T05:42:12.174Z,87.93
2019-03-22T05:44:44.284Z,87.47
2019-03-22T05:47:16.375Z,87.42
2019-03-22T05:49:48.514Z,87.46
2019-03-22T05:52:20.619Z,87.57
2019-03-22T05:54:52.715Z,87.34
2019-03-22T05:57:24.821Z,87.11
2019-03-22T05:59:56.970Z,87.00
2019-03-22T06:02:29.105Z,86.47
2019-03-22T06:05:01.209Z,86.43
2019-03-22T06:07:33.426Z,86.39
2019-03-22T06:10:06.336Z,86.57
2019-03-22T06:12:38.445Z,86.18
2019-03-22T06:15:11.070Z,85.66
2019-03-22T06:17:51.602Z,84.99
2019-03-22T06:20:17.043Z,84.66
2019-03-22T06:22:49.359Z,84.03
2019-03-22T06:25:21.445Z,83.23
2019-03-22T06:27:53.609Z,83.03
2019-03-22T06:30:25.776Z,82.96
2019-03-22T06:33:01.068Z,81.87
2019-03-22T06:35:33.253Z,81.82
2019-03-22T06:38:05.419Z,81.47
2019-03-22T06:40:37.605Z,80.17
2019-03-22T06:43:09.643Z,79.56
2019-03-22T06:45:41.797Z,79.23
2019-03-22T06:48:13.942Z,77.82
2019-03-22T06:50:46.117Z,76.27
2019-03-22T06:53:18.188Z,75.99
2019-03-22T06:55:50.211Z,74.13
2019-03-22T06:58:24.207Z,73.26
2019-03-22T07:00:56.065Z,72.49
2019-03-22T07:03:28.187Z,72.75
2019-03-22T07:06:00.255Z,71.21
2019-03-22T07:08:32.402Z,70.72
2019-03-22T07:11:04.538Z,69.98
2019-03-22T07:13:36.678Z,69.24
2019-03-22T07:16:08.923Z,67.50
2019-03-22T07:18:41.070Z,67.92
2019-03-22T07:21:13.225Z,67.92
2019-03-22T07:23:45.375Z,67.33
2019-03-22T07:26:17.489Z,65.23
2019-03-22T07:28:49.611Z,64.04
2019-03-22T07:31:21.805Z,63.30
2019-03-22T07:33:53.923Z,62.16
2019-03-22T07:36:26.074Z,61.86
2019-03-22T07:38:58.171Z,59.70
2019-03-22T07:41:30.258Z,58.10
2019-03-22T07:44:02.453Z,56.39
2019-03-22T07:46:34.602Z,55.19
2019-03-22T07:49:06.894Z,55.08
2019-03-22T07:51:39.074Z,55.42
2019-03-22T07:54:11.171Z,54.14
2019-03-22T07:56:43.313Z,53.74
2019-03-22T07:59:15.491Z,53.63
2019-03-22T08:01:47.657Z,51.90
2019-03-22T08:04:19.775Z,50.80
2019-03-22T08:06:51.911Z,49.41
2019-03-22T08:09:24.025Z,50.12
2019-03-22T08:11:56.174Z,50.17
2019-03-22T08:14:28.343Z,49.79
2019-03-22T08:17:00.456Z,48.92
2019-03-22T08:19:32.596Z,48.09
2019-03-22T08:22:04.737Z,46.81
2019-03-22T08:24:36.860Z,45.93
2019-03-22T08:27:08.895Z,44.95
2019-03-22T08:29:41.090Z,45.25
2019-03-22T08:32:13.222Z,44.83
2019-03-22T08:34:47.691Z,44.48
2019-03-22T08:37:19.135Z,43.28
2019-03-22T08:39:51.156Z,42.95
2019-03-22T08:42:23.301Z,42.89
2019-03-22T08:44:55.373Z,41.87
2019-03-22T08:47:33.979Z,41.02
2019-03-22T08:50:01.619Z,39.43
2019-03-22T08:52:33.770Z,38.81
2019-03-22T08:55:06.124Z,38.42
2019-03-22T08:57:38.236Z,38.43
2019-03-22T09:00:11.139Z,38.80
2019-03-22T09:02:43.267Z,38.51
2019-03-22T09:05:15.393Z,38.25
2019-03-22T09:07:47.543Z,38.49
2019-03-22T09:10:19.700Z,38.18
2019-03-22T09:12:51.735Z,38.21
2019-03-22T09:15:23.885Z,35.62
2019-03-22T09:17:55.983Z,35.12
2019-03-22T09:20:28.161Z,34.43
2019-03-22T09:23:00.179Z,33.89
2019-03-22T09:25:32.359Z,34.15
2019-03-22T09:28:04.496Z,32.95
2019-03-22T09:30:36.596Z,33.01
2019-03-22T09:33:08.725Z,32.35
2019-03-22T09:35:40.903Z,30.79
2019-03-22T09:38:13.589Z,31.13
2019-03-22T09:40:45.811Z,30.58
2019-03-22T09:43:17.991Z,30.90
2019-03-22T09:45:50.096Z,29.73
2019-03-22T09:48:22.216Z,30.71
2019-03-22T09:50:54.323Z,29.24
2019-03-22T09:53:26.524Z,29.50
2019-03-22T09:55:58.635Z,27.47
2019-03-22T09:58:30.794Z,27.74
2019-03-22T10:01:02.977Z,28.63
2019-03-22T10:03:35.233Z,28.32
2019-03-22T10:06:07.398Z,27.44
2019-03-22T10:08:39.567Z,27.73
2019-03-22T10:11:11.723Z,27.64
2019-03-22T10:13:43.942Z,27.30
2019-03-22T10:16:16.130Z,27.01
2019-03-22T10:18:48.170Z,26.80
2019-03-22T10:21:22.690Z,26.46
2019-03-22T10:23:54.201Z,26.54
2019-03-22T10:26:26.396Z,25.40
2019-03-22T10:28:58.523Z,24.49
2019-03-22T10:31:37.187Z,24.29
2019-03-22T10:34:04.520Z,25.19
2019-03-22T10:36:36.617Z,24.64
2019-03-22T10:39:10.967Z,24.74
2019-03-22T10:41:43.169Z,24.99
2019-03-22T10:44:15.361Z,24.33
2019-03-22T10:46:47.524Z,24.41
2019-03-22T10:49:19.650Z,24.71
2019-03-22T10:51:57.757Z,25.01
2019-03-22T10:54:25.641Z,24.40
2019-03-22T10:56:57.634Z,25.34
2019-03-22T10:59:29.827Z,26.52
2019-03-22T11:02:03.697Z,26.96
2019-03-22T11:04:35.903Z,26.42
2019-03-22T11:07:07.996Z,24.78
2019-03-22T11:09:40.210Z,24.36
2019-03-22T11:12:12.737Z,25.16
2019-03-22T11:14:45.761Z,24.71
2019-03-22T11:17:18.084Z,25.21
2019-03-22T11:19:50.200Z,25.76
2019-03-22T11:22:22.362Z,23.77
2019-03-22T11:24:54.531Z,23.39
2019-03-22T11:27:26.655Z,22.80
2019-03-22T11:29:58.828Z,22.95
2019-03-22T11:32:30.966Z,23.45
2019-03-22T11:35:03.139Z,22.60
2019-03-22T11:37:35.541Z,22.75
2019-03-22T11:40:10.844Z,22.39
2019-03-22T11:42:42.899Z,23.51
2019-03-22T11:45:18.144Z,23.79
2019-03-22T11:47:50.308Z,23.91
2019-03-22T11:50:22.433Z,23.68
2019-03-22T11:52:54.618Z,24.19
2019-03-22T11:55:26.794Z,23.65
2019-03-22T11:58:02.410Z,24.42
2019-03-22T12:00:34.540Z,22.91
2019-03-22T12:03:06.800Z,23.68
2019-03-22T12:05:40.571Z,22.84
2019-03-22T12:08:12.827Z,22.79
2019-03-22T12:10:44.854Z,22.73
2019-03-22T12:13:17.028Z,22.75
2019-03-22T12:15:49.207Z,22.85
2019-03-22T12:18:24.592Z,23.38
2019-03-22T12:20:56.767Z,24.14
2019-03-22T12:23:28.878Z,24.15
2019-03-22T12:26:01.000Z,23.02
2019-03-22T12:28:33.140Z,23.11
2019-03-22T12:31:05.253Z,22.90
2019-03-22T12:33:37.399Z,22.82
2019-03-22T12:36:09.491Z,23.67
2019-03-22T12:38:41.583Z,21.92
2019-03-22T12:41:14.827Z,22.11
2019-03-22T12:43:46.931Z,22.24
2019-03-22T12:46:19.097Z,22.78
2019-03-22T12:48:51.218Z,23.15
2019-03-22T12:51:23.326Z,23.55
2019-03-22T12:53:55.524Z,23.95
2019-03-22T12:56:28.705Z,24.01
2019-03-22T12:59:00.809Z,22.30
2019-03-22T13:01:32.857Z,22.43
2019-03-22T13:04:04.998Z,22.12
2019-03-22T13:06:37.257Z,22.53
2019-03-22T13:09:10.851Z,23.14
2019-03-22T13:11:42.973Z,23.38
2019-03-22T13:14:15.127Z,23.25
2019-03-22T13:16:47.260Z,22.97
2019-03-22T13:19:19.418Z,23.11
2019-03-22T13:21:51.512Z,23.28
2019-03-22T13:24:23.916Z,22.97
2019-03-22T13:26:56.046Z,23.19
2019-03-22T13:29:28.201Z,23.64
2019-03-22T13:32:00.337Z,23.06
2019-03-22T13:34:32.500Z,23.98
2019-03-22T13:37:04.678Z,24.21
2019-03-22T13:39:36.798Z,23.63
2019-03-22T13:42:08.970Z,24.06
2019-03-22T13:44:41.079Z,23.39
2019-03-22T13:47:13.258Z,23.73
2019-03-22T13:49:45.388Z,24.40
2019-03-22T13:52:17.643Z,24.84
2019-03-22T13:54:49.739Z,24.26
2019-03-22T13:57:24.085Z,24.52
2019-03-22T13:59:56.201Z,24.45
2019-03-22T14:02:28.410Z,24.13
2019-03-22T14:05:00.632Z,24.51
2019-03-22T14:07:32.646Z,24.40
2019-03-22T14:10:05.036Z,24.30
2019-03-22T14:12:38.172Z,23.89
2019-03-22T14:15:10.578Z,23.56
2019-03-22T14:17:42.701Z,24.35
2019-03-22T14:20:14.836Z,24.37
2019-03-22T14:22:47.002Z,24.42
2019-03-22T14:25:19.146Z,24.19
2019-03-22T14:27:51.301Z,23.37
2019-03-22T14:30:23.545Z,24.25
2019-03-22T14:32:55.833Z,24.23
2019-03-22T14:35:28.603Z,24.08
2019-03-22T14:38:00.720Z,24.66
2019-03-22T14:40:32.888Z,24.40
2019-03-22T14:43:05.001Z,24.12
2019-03-22T14:45:37.171Z,24.07
2019-03-22T14:48:09.325Z,23.60
2019-03-22T14:50:41.820Z,23.62
2019-03-22T14:53:14.003Z,23.71
2019-03-22T14:55:46.228Z,23.48
2019-03-22T14:58:18.371Z,23.17
2019-03-22T15:00:50.479Z,23.47
2019-03-22T15:03:26.708Z,23.27
2019-03-22T15:05:58.950Z,22.86
2019-03-22T15:08:31.030Z,23.26
2019-03-22T15:11:03.149Z,24.04
2019-03-22T15:13:38.727Z,24.31
2019-03-22T15:16:34.083Z,24.28
2019-03-22T15:19:16.875Z,24.06
2019-03-22T15:22:09.791Z,23.59
2019-03-22T15:25:00.702Z,22.94
2019-03-22T15:27:51.751Z,22.96
2019-03-22T15:30:55.225Z,23.48
2019-03-22T15:33:46.367Z,22.97
2019-03-22T15:36:42.673Z,23.90
2019-03-22T15:39:44.371Z,24.76
2019-03-22T15:42:16.093Z,24.90
2019-03-22T15:44:48.236Z,25.13
2019-03-22T15:47:20.787Z,25.25
2019-03-22T15:49:52.911Z,25.61
2019-03-22T15:52:25.156Z,25.38
2019-03-22T15:54:57.200Z,24.99
2019-03-22T15:57:29.327Z,25.01
2019-03-22T16:00:01.447Z,24.51
2019-03-22T16:02:33.554Z,24.71
2019-03-22T16:05:06.665Z,24.87
2019-03-22T16:07:38.794Z,25.44
2019-03-22T16:10:11.178Z,25.49
2019-03-22T16:12:43.290Z,25.50
2019-03-22T16:15:15.775Z,25.71
2019-03-22T16:17:47.934Z,25.74
2019-03-22T16:20:20.273Z,25.22
2019-03-22T16:22:52.377Z,25.70
2019-03-22T16:25:24.531Z,25.27
2019-03-22T16:28:01.327Z,25.25
2019-03-22T16:30:33.459Z,25.26
2019-03-22T16:33:05.582Z,25.66
2019-03-22T16:35:38.630Z,25.94
2019-03-22T16:38:10.740Z,26.19
2019-03-22T16:40:42.827Z,26.26
2019-03-22T16:43:15.031Z,26.05
2019-03-22T16:45:47.120Z,26.05
2019-03-22T16:48:19.289Z,26.18
2019-03-22T16:50:51.430Z,26.41
2019-03-22T16:53:23.565Z,26.33
2019-03-22T16:55:55.740Z,26.19
2019-03-22T16:58:28.153Z,26.26
2019-03-22T17:01:00.309Z,26.12
2019-03-22T17:03:32.477Z,26.30
2019-03-22T17:06:04.623Z,26.53
2019-03-22T17:08:36.756Z,26.61
2019-03-22T17:11:08.902Z,27.23
2019-03-22T17:13:40.931Z,26.92
2019-03-22T17:16:13.187Z,27.48
2019-03-22T17:18:45.355Z,27.58
2019-03-22T17:21:17.551Z,27.86
2019-03-22T17:23:49.643Z,27.55
2019-03-22T17:26:21.766Z,27.92
2019-03-22T17:28:53.786Z,28.12
2019-03-22T17:31:25.934Z,28.57
2019-03-22T17:33:58.073Z,28.50
2019-03-22T17:36:30.286Z,28.79
2019-03-22T17:39:02.396Z,29.03
2019-03-22T17:41:34.867Z,28.99
2019-03-22T17:44:07.321Z,29.35
2019-03-22T17:46:39.439Z,29.33
2019-03-22T17:49:11.543Z,29.22
2019-03-22T17:51:43.664Z,29.63
2019-03-22T17:54:15.760Z,29.39
2019-03-22T17:56:47.789Z,29.86
2019-03-22T17:59:20.192Z,29.97
2019-03-22T18:01:52.396Z,30.22
2019-03-22T18:04:24.614Z,29.92
2019-03-22T18:06:56.723Z,30.62
2019-03-22T18:09:28.874Z,30.48
2019-03-22T18:12:01.038Z,30.61
2019-03-22T18:14:33.175Z,30.51
2019-03-22T18:17:05.279Z,30.80
2019-03-22T18:19:37.346Z,30.76
2019-03-22T18:22:09.495Z,30.75
2019-03-22T18:24:41.653Z,30.65
2019-03-22T18:27:13.765Z,30.61
2019-03-22T18:29:45.913Z,30.59
2019-03-22T18:32:18.078Z,31.01
2019-03-22T18:34:50.188Z,31.15
2019-03-22T18:37:24.782Z,31.27
2019-03-22T18:39:56.893Z,31.43
2019-03-22T18:42:29.111Z,31.48
2019-03-22T18:45:01.126Z,31.32
2019-03-22T18:47:33.293Z,31.72
2019-03-22T18:50:06.520Z,31.79
2019-03-22T18:52:41.113Z,31.75
2019-03-22T18:55:13.737Z,32.06
2019-03-22T18:57:45.851Z,32.39
2019-03-22T19:00:18.277Z,32.72
2019-03-22T19:02:50.433Z,33.16
2019-03-22T19:05:25.607Z,33.00
2019-03-22T19:07:57.837Z,33.17
2019-03-22T19:10:29.995Z,32.86
2019-03-22T19:13:02.026Z,33.17
2019-03-22T19:15:34.074Z,33.64
2019-03-22T19:18:06.175Z,33.71
2019-03-22T19:20:38.367Z,33.84
2019-03-22T19:23:10.547Z,33.49
2019-03-22T19:25:42.831Z,33.79
2019-03-22T19:28:14.995Z,33.77
2019-03-22T19:30:47.225Z,34.00
2019-03-22T19:33:19.400Z,34.17
2019-03-22T19:35:51.684Z,34.09
2019-03-22T19:38:23.904Z,34.15
2019-03-22T19:40:56.038Z,34.32
2019-03-22T19:43:28.142Z,34.64
2019-03-22T19:46:00.314Z,34.46
2019-03-22T19:48:32.455Z,34.70
2019-03-22T19:51:04.617Z,34.86
2019-03-22T19:53:36.757Z,34.93
2019-03-22T19:56:08.794Z,34.71
2019-03-22T19:58:41.052Z,35.36
2019-03-22T20:01:13.045Z,34.91
2019-03-22T20:03:45.236Z,35.15
2019-03-22T20:06:17.370Z,35.21
2019-03-22T20:08:49.473Z,35.35
2019-03-22T20:11:21.705Z,35.41
2019-03-22T20:13:53.850Z,35.65
2019-03-22T20:16:26.020Z,35.76
2019-03-22T20:18:58.143Z,35.93
2019-03-22T20:21:30.353Z,36.45
2019-03-22T20:24:02.518Z,36.31
2019-03-22T20:26:34.664Z,36.44
2019-03-22T20:29:06.810Z,36.46
2019-03-22T20:31:38.929Z,36.41
2019-03-22T20:34:11.073Z,36.50
2019-03-22T20:36:43.818Z,36.95
2019-03-22T20:39:19.493Z,37.04
2019-03-22T20:41:51.706Z,36.87
2019-03-22T20:44:33.570Z,37.07
2019-03-22T20:46:57.610Z,37.13
2019-03-22T20:49:29.760Z,37.27
2019-03-22T20:52:01.929Z,37.33
2019-03-22T20:54:34.072Z,37.42
2019-03-22T20:57:06.226Z,37.39
2019-03-22T20:59:38.344Z,37.65
2019-03-22T21:02:12.786Z,37.96
2019-03-22T21:04:44.931Z,37.94
2019-03-22T21:07:17.090Z,38.28
2019-03-22T21:09:51.374Z,38.06
2019-03-22T21:12:23.520Z,37.99
2019-03-22T21:14:55.659Z,38.26
2019-03-22T21:17:27.762Z,38.14
2019-03-22T21:19:59.904Z,38.10
2019-03-22T21:22:32.041Z,38.40
2019-03-22T21:25:04.417Z,38.31
2019-03-22T21:27:36.561Z,38.04
2019-03-22T21:30:08.983Z,37.92
2019-03-22T21:32:45.513Z,38.03
2019-03-22T21:35:22.330Z,37.96
2019-03-22T21:37:48.940Z,37.88
2019-03-22T21:40:21.085Z,37.82
2019-03-22T21:42:53.425Z,37.79
2019-03-22T21:45:25.574Z,37.60
2019-03-22T21:47:58.634Z,37.79
2019-03-22T21:50:30.758Z,37.42
2019-03-22T21:53:02.927Z,37.29
2019-03-22T21:55:36.038Z,37.34
2019-03-22T21:58:08.146Z,37.53
2019-03-22T22:00:40.307Z,37.60
2019-03-22T22:03:14.487Z,37.38
2019-03-22T22:05:48.068Z,37.20
2019-03-22T22:08:20.390Z,37.19
2019-03-22T22:10:59.564Z,37.61
2019-03-22T22:13:26.306Z,37.22
2019-03-22T22:15:58.381Z,37.51
2019-03-22T22:18:30.485Z,37.30
2019-03-22T22:21:02.625Z,37.81
2019-03-22T22:23:34.731Z,38.46
2019-03-22T22:26:06.872Z,39.17
2019-03-22T22:28:38.974Z,39.79
2019-03-22T22:31:11.513Z,40.50
2019-03-22T22:33:43.585Z,41.19
2019-03-22T22:36:15.690Z,41.68
2019-03-22T22:38:47.831Z,42.15
2019-03-22T22:41:19.979Z,42.46
2019-03-22T22:43:52.104Z,42.74
2019-03-22T22:46:24.242Z,43.23
2019-03-22T22:48:56.302Z,43.32
2019-03-22T22:51:28.441Z,43.50
2019-03-22T22:54:00.561Z,43.48
2019-03-22T22:56:32.731Z,44.21
2019-03-22T22:59:04.867Z,44.22
2019-03-22T23:01:36.896Z,44.39
2019-03-22T23:04:08.998Z,45.00
2019-03-22T23:06:41.134Z,45.90
2019-03-22T23:09:13.176Z,46.33
2019-03-22T23:11:45.235Z,45.98
2019-03-22T23:14:17.377Z,45.85
2019-03-22T23:16:49.480Z,46.21
2019-03-22T23:19:21.636Z,46.19
2019-03-22T23:21:53.792Z,46.07
2019-03-22T23:24:25.928Z,45.93
2019-03-22T23:26:58.053Z,46.59
2019-03-22T23:29:30.186Z,46.81
2019-03-22T23:32:02.297Z,46.90
2019-03-22T23:34:34.411Z,46.87
2019-03-22T23:37:07.313Z,47.13
2019-03-22T23:39:39.472Z,46.78
2019-03-22T23:42:11.646Z,46.34
2019-03-22T23:44:43.778Z,46.42
2019-03-22T23:47:15.892Z,46.36
2019-03-22T23:49:48.045Z,46.47
2019-03-22T23:52:20.174Z,46.67
2019-03-22T23:54:52.373Z,46.87
2019-03-22T23:57:24.508Z,46.86
2019-03-22T23:59:56.647Z,46.52
